Time;durP1;ratioP1;P1;durP2;ratioP2;P2;SDS_P1;SDS_P2;PMS_P1;PMS_P2;Temp;Humidity;BMP_temperature;BMP_pressure;BME280_temperature;BME280_humidity;BME280_pressure;Samples;Min_cycle;Max_cycle;Signal;HPM_P1;HPM_P2
2023/07/10 00:01:44;;;;;;;1.35;0.80;;;;;;;20.05;63.68;99940.72;5113722;28;20057;-62
2023/07/10 00:04:17;;;;;;;1.65;1.33;;;;;;;20.04;63.15;99939.88;5113651;28;20386;-61
2023/07/10 00:06:48;;;;;;;0.60;0.60;;;;;;;20.01;63.20;99934.78;5114291;28;20538;-61
2023/07/10 00:09:18;;;;;;;1.33;1.05;;;;;;;19.99;63.30;99940.94;5113615;28;20047;-61
2023/07/10 00:11:47;;;;;;;0.97;0.80;;;;;;;20.04;63.16;99939.03;5113634;28;20122;-61
2023/07/10 00:14:20;;;;;;;0.50;0.50;;;;;;;20.06;62.96;99943.25;5113818;28;20134;-60
2023/07/10 00:16:50;;;;;;;1.02;0.88;;;;;;;19.97;62.94;99937.56;5113578;28;20044;-61
2023/07/10 00:19:19;;;;;;;1.70;1.42;;;;;;;19.96;63.25;99944.47;5113551;28;20050;-61
2023/07/10 00:21:52;;;;;;;0.50;0.50;;;;;;;19.96;63.39;99935.88;5113663;28;20040;-61
2023/07/10 00:24:21;;;;;;;0.93;0.88;;;;;;;19.96;63.23;99935.88;5113648;28;20481;-61
2023/07/10 00:26:50;;;;;;;1.00;0.90;;;;;;;19.94;63.26;99938.50;5113416;28;20044;-61
2023/07/10 00:29:26;;;;;;;1.48;1.20;;;;;;;19.94;63.36;99941.09;5113911;28;20540;-61
2023/07/10 00:31:55;;;;;;;0.75;0.70;;;;;;;19.90;63.44;99947.28;5117146;28;20079;-61
2023/07/10 00:34:25;;;;;;;;;;;;;;;19.90;63.22;99939.53;5117586;28;20046;-61
2023/07/10 00:36:54;;;;;;;;;;;;;;;19.84;63.34;99941.47;5117781;28;19953;-61
2023/07/10 00:39:28;;;;;;;1.00;0.90;;;;;;;19.88;63.54;99938.72;5117048;28;19973;-61
2023/07/10 00:41:59;;;;;;;2.70;1.23;;;;;;;19.86;63.83;99943.13;5116083;28;20404;-61
2023/07/10 00:44:34;;;;;;;3.05;2.47;;;;;;;19.65;64.10;99940.41;5115793;28;20096;-61
2023/07/10 00:47:10;;;;;;;4.03;1.75;;;;;;;19.54;64.52;99942.50;5115838;28;20040;-61
2023/07/10 00:49:45;;;;;;;0.52;0.52;;;;;;;19.58;63.87;99942.34;5115690;28;20046;-61
2023/07/10 00:52:19;;;;;;;1.58;1.25;;;;;;;19.67;63.72;99944.66;5116206;28;20048;-61
2023/07/10 00:54:52;;;;;;;1.70;1.15;;;;;;;19.64;63.56;99944.75;5115530;28;20048;-61
2023/07/10 00:57:25;;;;;;;1.75;1.40;;;;;;;19.53;63.47;99944.22;5116682;28;20048;-61
2023/07/10 00:59:56;;;;;;;2.33;2.13;;;;;;;19.47;63.13;99941.84;5115679;28;20500;-61
2023/07/10 01:02:25;;;;;;;1.02;0.77;;;;;;;19.37;63.61;99953.41;5115379;28;20131;-62
2023/07/10 01:05:02;;;;;;;1.73;1.52;;;;;;;19.32;63.97;99937.13;5116494;28;20126;-62
2023/07/10 01:07:36;;;;;;;1.52;1.25;;;;;;;19.34;63.71;99940.50;5116487;28;20075;-61
2023/07/10 01:10:11;;;;;;;0.60;0.60;;;;;;;19.21;64.13;99940.06;5116781;28;20146;-61
2023/07/10 01:12:42;;;;;;;1.55;1.10;;;;;;;19.08;64.66;99943.06;5116627;28;20116;-61
2023/07/10 01:15:14;;;;;;;1.50;1.30;;;;;;;19.02;65.03;99943.28;5116317;28;20044;-61
2023/07/10 01:17:43;;;;;;;1.33;1.13;;;;;;;19.03;65.22;99939.78;5115293;28;20039;-61
2023/07/10 01:20:35;;;;;;;3.13;1.00;;;;;;;18.90;65.80;99938.47;5116590;28;20077;-61
2023/07/10 01:23:07;;;;;;;2.17;0.90;;;;;;;18.80;66.24;99952.56;5116019;28;20055;-61
2023/07/10 01:25:40;;;;;;;2.65;1.58;;;;;;;18.68;66.52;99949.47;5115025;28;20050;-61
2023/07/10 01:28:15;;;;;;;1.17;0.98;;;;;;;18.57;67.04;99941.16;5116265;28;20139;-61
2023/07/10 01:30:46;;;;;;;1.05;0.98;;;;;;;18.52;67.44;99943.03;5114861;28;20071;-61
2023/07/10 01:33:20;;;;;;;1.10;1.00;;;;;;;18.47;67.94;99939.75;5116266;28;20048;-61
2023/07/10 01:35:53;;;;;;;3.83;1.30;;;;;;;18.39;68.45;99930.47;5116163;28;20055;-61
2023/07/10 01:38:31;;;;;;;1.27;1.17;;;;;;;18.41;68.32;99932.13;5115797;28;20051;-61
2023/07/10 01:41:06;;;;;;;1.00;0.88;;;;;;;18.48;68.01;99931.09;5115810;28;20071;-62
2023/07/10 01:43:35;;;;;;;0.65;0.65;;;;;;;18.54;67.55;99933.53;5116115;27;20142;-62
2023/07/10 01:46:18;;;;;;;0.97;0.80;;;;;;;18.59;67.31;99934.25;5116014;28;20039;-62
2023/07/10 01:48:48;;;;;;;2.17;1.42;;;;;;;18.67;66.74;99937.41;5115606;28;20040;-61
2023/07/10 01:51:17;;;;;;;3.70;1.67;;;;;;;18.74;66.27;99933.75;5115303;28;20138;-61
2023/07/10 01:53:48;;;;;;;2.05;0.90;;;;;;;18.73;65.85;99932.09;5115524;28;20069;-61
2023/07/10 01:56:21;;;;;;;0.93;0.88;;;;;;;18.71;65.84;99920.09;5115541;28;20050;-61
2023/07/10 01:58:52;;;;;;;1.65;1.23;;;;;;;18.76;65.78;99919.94;5115728;28;20063;-61
2023/07/10 02:01:21;;;;;;;1.58;1.48;;;;;;;18.76;65.84;99925.13;5115442;28;20072;-61
2023/07/10 02:03:51;;;;;;;1.38;0.85;;;;;;;18.70;66.08;99927.00;5115670;28;20043;-61
2023/07/10 02:06:21;;;;;;;0.52;0.52;;;;;;;18.58;66.44;99927.34;5115569;28;20435;-61
2023/07/10 02:08:53;;;;;;;0.90;0.65;;;;;;;18.48;66.79;99919.91;5115075;28;20043;-61
2023/07/10 02:11:22;;;;;;;0.60;0.60;;;;;;;18.39;67.33;99915.81;5115237;27;20067;-61
2023/07/10 02:13:51;;;;;;;0.80;0.80;;;;;;;18.27;67.71;99910.16;5115150;28;20040;-62
2023/07/10 02:16:21;;;;;;;1.38;1.08;;;;;;;18.29;67.94;99919.56;5113911;28;20049;-62
2023/07/10 02:18:49;;;;;;;1.38;1.05;;;;;;;18.37;67.56;99917.59;5114983;28;20052;-61
2023/07/10 02:21:18;;;;;;;1.67;1.00;;;;;;;18.32;67.37;99918.63;5113603;28;20058;-61
2023/07/10 02:23:48;;;;;;;1.77;1.15;;;;;;;18.27;67.44;99911.00;5114363;28;20048;-61
2023/07/10 02:26:18;;;;;;;1.33;1.23;;;;;;;18.16;67.75;99913.06;5115197;28;20050;-61
2023/07/10 02:28:50;;;;;;;16.67;1.45;;;;;;;18.04;68.03;99903.06;5113579;28;20131;-61
2023/07/10 02:31:20;;;;;;;2.00;1.35;;;;;;;18.00;68.39;99911.75;5114823;28;20126;-61
2023/07/10 02:33:49;;;;;;;1.05;0.95;;;;;;;17.99;68.66;99916.09;5114784;28;20043;-62
2023/07/10 02:36:19;;;;;;;1.45;1.30;;;;;;;18.09;68.21;99912.34;5114716;28;20542;-62
2023/07/10 02:38:48;;;;;;;2.67;1.00;;;;;;;18.24;67.70;99918.84;5113770;28;20116;-62
2023/07/10 02:41:19;;;;;;;0.88;0.85;;;;;;;18.32;67.07;99909.13;5114891;28;20118;-61
2023/07/10 02:43:48;;;;;;;1.20;1.10;;;;;;;18.36;66.95;99909.88;5114675;28;20507;-62
2023/07/10 02:46:17;;;;;;;1.13;1.03;;;;;;;18.36;67.04;99909.88;5114572;28;20047;-62
2023/07/10 02:48:46;;;;;;;0.65;0.65;;;;;;;18.34;67.17;99907.34;5114415;28;20112;-62
2023/07/10 02:51:15;;;;;;;1.37;1.20;;;;;;;18.28;67.40;99907.53;5112899;28;20067;-61
2023/07/10 02:53:44;;;;;;;1.30;1.10;;;;;;;18.25;67.31;99907.63;5114482;28;20062;-61
2023/07/10 02:56:13;;;;;;;1.85;1.48;;;;;;;18.03;67.58;99906.50;5114365;28;20127;-61
2023/07/10 02:58:43;;;;;;;1.15;1.05;;;;;;;17.89;68.00;99906.03;5113451;28;20044;-61
2023/07/10 03:01:12;;;;;;;0.70;0.70;;;;;;;17.90;68.33;99907.75;5114573;28;20047;-61
2023/07/10 03:03:45;;;;;;;4.53;1.03;;;;;;;17.84;68.58;99905.31;5114491;28;20487;-61
2023/07/10 03:06:14;;;;;;;1.67;1.55;;;;;;;17.72;68.70;99913.38;5114291;28;20622;-61
2023/07/10 03:08:44;;;;;;;0.85;0.77;;;;;;;17.72;69.23;99910.78;5114207;28;20511;-61
2023/07/10 03:11:14;;;;;;;1.80;1.43;;;;;;;17.74;69.46;99909.03;5114449;28;20036;-61
2023/07/10 03:13:44;;;;;;;0.82;0.80;;;;;;;17.77;69.22;99908.94;5114216;28;20044;-61
2023/07/10 03:16:16;;;;;;;2.35;1.25;;;;;;;17.72;69.14;99910.78;5112994;28;20134;-61
2023/07/10 03:18:45;;;;;;;1.13;1.02;;;;;;;17.72;69.69;99911.66;5114124;28;20054;-61
2023/07/10 03:21:13;;;;;;;1.15;1.05;;;;;;;17.75;69.53;99910.72;5114093;28;20067;-62
2023/07/10 03:23:42;;;;;;;1.80;1.50;;;;;;;17.75;69.59;99915.88;5114143;28;20075;-61
2023/07/10 03:26:11;;;;;;;1.47;1.20;;;;;;;17.78;69.38;99905.50;5114394;28;20276;-61
2023/07/10 03:28:40;;;;;;;;;;;;;;;17.81;69.43;99915.72;5114435;28;20063;-62
2023/07/10 03:31:11;;;;;;;0.68;0.68;;;;;;;17.76;70.03;99912.41;5113824;28;19943;-61
2023/07/10 03:33:40;;;;;;;0.93;0.88;;;;;;;17.72;70.41;99910.78;5114282;28;20553;-61
2023/07/10 03:36:10;;;;;;;1.63;1.37;;;;;;;17.63;70.24;99905.88;5113890;28;20046;-61
2023/07/10 03:38:43;;;;;;;1.25;1.15;;;;;;;17.72;70.24;99910.78;5113992;28;20051;-61
2023/07/10 03:41:12;;;;;;;1.30;1.20;;;;;;;17.80;70.40;99914.88;5114183;28;20096;-61
2023/07/10 03:43:41;;;;;;;3.80;1.80;;;;;;;17.85;70.24;99913.00;5114142;28;20092;-61
2023/07/10 03:46:12;;;;;;;2.63;1.63;;;;;;;17.93;70.36;99905.06;5113844;28;20036;-61
2023/07/10 03:48:41;;;;;;;1.35;1.20;;;;;;;17.97;70.10;99906.69;5112844;28;20051;-61
2023/07/10 03:51:10;;;;;;;2.57;1.00;;;;;;;17.95;70.39;99898.09;5114245;28;20446;-61
2023/07/10 03:53:39;;;;;;;1.02;0.95;;;;;;;17.92;70.49;99903.38;5113754;28;20280;-61
2023/07/10 03:56:09;;;;;;;1.00;0.82;;;;;;;17.94;70.45;99907.63;5113768;28;20066;-61
2023/07/10 03:58:41;;;;;;;1.63;1.52;;;;;;;18.00;70.44;99897.09;5114053;28;20067;-61
2023/07/10 04:01:11;;;;;;;1.60;1.38;;;;;;;18.10;70.23;99900.28;5113764;28;20093;-61
2023/07/10 04:03:41;;;;;;;0.88;0.88;;;;;;;18.20;70.00;99898.28;5114756;28;20134;-61
2023/07/10 04:06:15;;;;;;;2.67;1.00;;;;;;;18.34;69.24;99897.00;5117893;28;20048;-61
2023/07/10 04:08:47;;;;;;;1.30;1.00;;;;;;;18.45;68.59;99897.53;5117643;28;20043;-61
2023/07/10 04:11:19;;;;;;;3.45;1.10;;;;;;;18.54;67.94;99884.41;5116294;28;20054;-61
2023/07/10 04:13:48;;;;;;;0.70;0.70;;;;;;;18.54;68.08;99889.56;5117548;28;20122;-61
2023/07/10 04:16:21;;;;;;;1.33;1.23;;;;;;;18.63;67.57;99888.44;5117444;28;20047;-61
2023/07/10 04:18:53;;;;;;;1.00;0.93;;;;;;;18.69;67.23;99889.09;5117409;28;20048;-61
2023/07/10 04:21:25;;;;;;;9.10;0.93;;;;;;;18.81;67.21;99897.38;5117483;28;20450;-62
2023/07/10 04:23:55;;;;;;;1.38;0.80;;;;;;;18.88;66.81;99898.88;5117612;28;20044;-61
2023/07/10 04:26:27;;;;;;;2.92;1.33;;;;;;;18.94;66.65;99888.34;5117083;28;20052;-61
2023/07/10 04:28:57;;;;;;;0.93;0.93;;;;;;;19.00;66.38;99893.34;5116355;28;20396;-61
2023/07/10 04:31:28;;;;;;;0.65;0.63;;;;;;;19.04;66.62;99892.31;5117504;28;20048;-61
2023/07/10 04:33:58;;;;;;;1.35;1.23;;;;;;;19.15;66.36;99887.66;5117154;28;20096;-61
2023/07/10 04:36:28;;;;;;;5.07;1.30;;;;;;;19.17;66.06;99891.88;5117083;28;20078;-62
2023/07/10 04:38:58;;;;;;;0.90;0.90;;;;;;;19.22;66.16;99892.56;5117029;28;20122;-62
2023/07/10 04:41:27;;;;;;;1.87;1.37;;;;;;;19.37;65.60;99899.03;5117183;28;20096;-62
2023/07/10 04:43:56;;;;;;;2.43;1.30;;;;;;;19.50;65.06;99895.16;5116861;28;20052;-61
2023/07/10 04:46:24;;;;;;;1.80;1.00;;;;;;;19.65;64.82;99912.75;5116807;28;20039;-61
2023/07/10 04:48:55;;;;;;;2.08;1.27;;;;;;;19.72;64.21;99906.50;5117177;28;20044;-62
2023/07/10 04:51:24;;;;;;;1.17;1.08;;;;;;;19.87;63.31;99905.09;5116777;28;20072;-62
2023/07/10 04:53:53;;;;;;;3.90;1.70;;;;;;;19.98;62.82;99914.19;5116969;28;20504;-61
2023/07/10 04:56:22;;;;;;;1.33;0.95;;;;;;;20.16;62.29;99911.81;5117011;28;20036;-62
2023/07/10 04:58:54;;;;;;;1.60;1.50;;;;;;;20.29;62.00;99913.97;5116945;28;20043;-62
2023/07/10 05:01:25;;;;;;;3.75;1.13;;;;;;;20.43;61.55;99918.63;5116672;28;20055;-62
2023/07/10 05:03:56;;;;;;;1.75;0.80;;;;;;;20.57;61.36;99916.38;5116618;28;20047;-61
2023/07/10 05:06:25;;;;;;;1.13;0.95;;;;;;;20.75;61.25;99918.28;5116856;28;20077;-62
2023/07/10 05:08:54;;;;;;;0.80;0.80;;;;;;;20.85;60.38;99924.78;5116406;28;20118;-62
2023/07/10 05:11:25;;;;;;;1.42;1.02;;;;;;;20.94;59.71;99937.44;5116453;28;20035;-60
2023/07/10 05:13:55;;;;;;;1.10;1.00;;;;;;;21.08;59.37;99937.78;5116315;28;20550;-62
2023/07/10 05:16:25;;;;;;;1.25;1.13;;;;;;;21.13;58.98;99925.47;5116371;28;20116;-62
2023/07/10 05:18:55;;;;;;;0.70;0.70;;;;;;;21.25;58.34;99930.16;5116534;28;20116;-63
2023/07/10 05:21:24;;;;;;;1.58;0.95;;;;;;;21.36;57.90;99925.38;5116770;28;20063;-63
2023/07/10 05:23:53;;;;;;;0.70;0.70;;;;;;;21.45;57.71;99934.53;5116849;27;20058;-62
2023/07/10 05:26:22;;;;;;;0.95;0.88;;;;;;;21.61;57.30;99937.34;5116116;28;20035;-62
2023/07/10 05:28:51;;;;;;;0.60;0.60;;;;;;;21.73;56.70;99934.25;5116151;28;20456;-63
2023/07/10 05:31:20;;;;;;;2.60;2.05;;;;;;;21.81;56.50;99922.59;5116119;28;20076;-63
2023/07/10 05:33:50;;;;;;;1.80;1.63;;;;;;;21.95;56.19;99927.25;5116262;28;20043;-62
2023/07/10 05:36:21;;;;;;;3.38;1.50;;;;;;;22.03;56.12;99920.81;5116175;28;20392;-62
2023/07/10 05:38:50;;;;;;;2.33;1.15;;;;;;;22.09;55.97;99924.91;5116159;28;20040;-63
2023/07/10 05:41:23;;;;;;;0.95;0.85;;;;;;;22.16;55.51;99930.66;5115864;28;20485;-62
2023/07/10 05:43:52;;;;;;;1.33;0.80;;;;;;;22.19;55.37;99926.19;5114887;28;20374;-62
2023/07/10 05:46:21;;;;;;;2.08;1.70;;;;;;;22.29;55.33;99922.25;5115761;28;20031;-65
2023/07/10 05:48:50;;;;;;;0.77;0.70;;;;;;;22.41;54.72;99916.50;5097668;28;20044;-63
2023/07/10 05:51:20;;;;;;;1.10;1.00;;;;;;;22.47;54.72;99915.38;5102349;28;20486;-62
2023/07/10 05:53:49;;;;;;;0.77;0.77;;;;;;;22.63;54.53;99916.38;5095513;28;20409;-63
2023/07/10 05:56:18;;;;;;;1.60;1.30;;;;;;;22.75;54.52;99915.00;5094752;28;20039;-63
2023/07/10 05:58:48;;;;;;;1.85;0.93;;;;;;;22.85;54.68;99918.84;5095366;28;20513;-62
2023/07/10 06:01:17;;;;;;;1.15;1.05;;;;;;;22.99;54.50;99914.66;5094062;28;20052;-62
2023/07/10 06:03:46;;;;;;;0.60;0.60;;;;;;;23.11;54.44;99913.22;5099169;28;20036;-64
2023/07/10 06:06:15;;;;;;;1.27;0.85;;;;;;;23.15;54.08;99920.00;5098318;28;20131;-62
2023/07/10 06:08:46;;;;;;;1.27;1.17;;;;;;;23.18;53.94;99915.47;5093688;28;20052;-62
2023/07/10 06:11:15;;;;;;;0.80;0.80;;;;;;;23.27;54.07;99909.00;5094745;28;20043;-62
2023/07/10 06:13:44;;;;;;;2.50;1.47;;;;;;;23.36;55.36;99907.72;5093262;28;20043;-63
2023/07/10 06:16:14;;;;;;;0.63;0.63;;;;;;;23.33;56.16;99916.50;5094688;28;20318;-62
2023/07/10 06:18:43;;;;;;;6.45;3.42;;;;;;;23.43;55.77;99915.16;5094682;28;20097;-63
2023/07/10 06:21:12;;;;;;;2.05;0.93;;;;;;;23.55;54.70;99906.72;5094683;28;20044;-63
2023/07/10 06:23:41;;;;;;;3.17;1.70;;;;;;;23.62;54.22;99905.50;5094726;28;20050;-62
2023/07/10 06:26:11;;;;;;;3.30;1.85;;;;;;;23.65;53.49;99905.34;5093427;28;20036;-63
2023/07/10 06:28:40;;;;;;;2.25;1.63;;;;;;;23.66;52.60;99904.41;5094915;28;20044;-63
2023/07/10 06:31:12;;;;;;;1.55;0.80;;;;;;;23.75;52.36;99905.72;5094705;28;20044;-62
2023/07/10 06:33:41;;;;;;;0.88;0.75;;;;;;;23.94;52.46;99912.53;5096426;28;20044;-64
2023/07/10 06:36:11;;;;;;;0.73;0.73;;;;;;;24.15;51.83;99909.75;5111614;28;20485;-63
2023/07/10 06:38:40;;;;;;;2.33;2.13;;;;;;;24.27;51.40;99914.31;5114719;28;20508;-63
2023/07/10 06:41:10;;;;;;;1.08;0.98;;;;;;;24.35;51.65;99912.16;5112587;28;20493;-62
2023/07/10 06:43:45;;;;;;;0.77;0.70;;;;;;;24.41;51.79;99906.59;5115200;28;20047;-62
2023/07/10 06:46:13;;;;;;;1.90;1.25;;;;;;;24.51;51.57;99913.00;5114851;28;20536;-63
2023/07/10 06:48:45;;;;;;;1.20;0.85;;;;;;;24.65;51.25;99905.28;5114569;28;20057;-62
2023/07/10 06:51:14;;;;;;;1.25;1.05;;;;;;;24.77;50.75;99904.63;5109035;28;20047;-63
2023/07/10 06:53:42;;;;;;;1.10;0.98;;;;;;;24.84;50.20;99905.97;5108593;28;20047;-63
2023/07/10 06:56:11;;;;;;;0.80;0.80;;;;;;;24.93;50.01;99902.84;5108131;28;20489;-65
2023/07/10 06:58:40;;;;;;;1.83;1.47;;;;;;;24.93;50.40;99908.06;5094454;28;20394;-63
2023/07/10 07:01:10;;;;;;;1.27;1.17;;;;;;;25.06;50.55;99901.25;5094221;28;20044;-63
2023/07/10 07:03:40;;;;;;;0.65;0.63;;;;;;;25.21;50.51;99902.16;5093930;28;20405;-63
2023/07/10 07:06:09;;;;;;;1.23;0.70;;;;;;;25.19;50.28;99897.00;5093394;28;20496;-63
2023/07/10 07:08:38;;;;;;;0.73;0.65;;;;;;;25.33;50.10;99903.22;5094439;28;20363;-63
2023/07/10 07:11:07;;;;;;;0.75;0.65;;;;;;;25.40;49.64;99891.47;5093999;28;20512;-62
2023/07/10 07:13:37;;;;;;;0.80;0.80;;;;;;;25.67;49.75;99892.50;5093769;28;20040;-63
2023/07/10 07:16:06;;;;;;;0.65;0.65;;;;;;;25.90;49.19;99884.13;5092965;28;20436;-63
2023/07/10 07:18:37;;;;;;;0.40;0.40;;;;;;;26.00;48.19;99880.03;5094049;28;20040;-63
2023/07/10 07:21:07;;;;;;;4.05;1.02;;;;;;;26.13;48.10;99891.44;5093771;28;20398;-64
2023/07/10 07:23:36;;;;;;;0.82;0.82;;;;;;;26.22;47.88;99888.28;5093589;28;20044;-62
2023/07/10 07:26:05;;;;;;;1.40;1.25;;;;;;;26.38;48.07;99886.41;5092776;28;20452;-63
2023/07/10 07:28:34;;;;;;;;;;;;;;;26.37;47.21;99894.34;5093848;28;20123;-63
2023/07/10 07:31:05;;;;;;;3.40;1.60;;;;;;;26.39;47.42;99888.09;5093852;28;19927;-63
2023/07/10 07:33:36;;;;;;;1.05;0.95;;;;;;;26.51;47.11;99876.81;5092388;28;20048;-63
2023/07/10 07:36:05;;;;;;;0.98;0.88;;;;;;;26.69;46.21;99879.22;5093060;28;20048;-63
2023/07/10 07:38:34;;;;;;;1.45;1.20;;;;;;;26.86;45.99;99881.63;5095923;28;20047;-64
2023/07/10 07:41:05;;;;;;;0.70;0.70;;;;;;;27.04;45.72;99873.41;5097664;28;20085;-63
2023/07/10 07:43:34;;;;;;;1.13;1.02;;;;;;;27.19;45.79;99868.94;5097937;28;20032;-63
2023/07/10 07:46:04;;;;;;;0.80;0.80;;;;;;;27.27;46.02;99861.44;5098113;28;20036;-63
2023/07/10 07:48:34;;;;;;;2.22;1.35;;;;;;;27.41;45.59;99864.00;5097581;28;20514;-63
2023/07/10 07:51:07;;;;;;;0.88;0.88;;;;;;;27.51;45.00;99865.06;5097452;28;20054;-64
2023/07/10 07:53:41;;;;;;;0.85;0.85;;;;;;;27.66;44.74;99858.81;5097364;28;20076;-63
2023/07/10 07:56:11;;;;;;;0.98;0.88;;;;;;;27.81;44.78;99862.97;5097399;28;20134;-64
2023/07/10 07:58:40;;;;;;;0.52;0.52;;;;;;;28.01;44.44;99860.78;5097318;28;20109;-63
2023/07/10 08:01:09;;;;;;;0.80;0.80;;;;;;;28.15;44.26;99860.66;5097363;28;20044;-64
2023/07/10 08:03:39;;;;;;;0.47;0.47;;;;;;;28.20;43.82;99863.81;5098536;28;20139;-63
2023/07/10 08:06:16;;;;;;;1.38;1.05;;;;;;;28.26;43.88;99852.91;5096577;28;20040;-64
2023/07/10 08:08:47;;;;;;;1.10;1.02;;;;;;;28.40;44.51;99850.97;5116091;28;20084;-63
2023/07/10 08:11:18;;;;;;;2.00;0.93;;;;;;;28.65;44.71;99854.50;5117537;28;20097;-63
2023/07/10 08:13:49;;;;;;;1.65;1.23;;;;;;;28.84;43.89;99842.50;5104683;28;20052;-63
2023/07/10 08:16:20;;;;;;;2.58;1.00;;;;;;;28.76;42.71;99846.66;5096217;28;20101;-63
2023/07/10 08:18:50;;;;;;;2.08;1.15;;;;;;;28.63;42.00;99846.72;5097046;28;20056;-63
2023/07/10 08:21:21;;;;;;;0.85;0.82;;;;;;;28.58;42.01;99840.09;5095551;28;20490;-63
2023/07/10 08:23:50;;;;;;;0.63;0.60;;;;;;;28.62;42.08;99845.03;5099463;28;20052;-63
2023/07/10 08:26:19;;;;;;;0.50;0.50;;;;;;;28.76;42.25;99830.91;5097195;28;20532;-63
2023/07/10 08:28:49;;;;;;;0.95;0.80;;;;;;;28.98;41.37;99825.75;5097134;28;20128;-63
2023/07/10 08:31:18;;;;;;;1.00;0.77;;;;;;;29.17;40.96;99824.25;5096265;28;20078;-63
2023/07/10 08:33:47;;;;;;;;;;;;;;;29.33;41.11;99823.13;5097327;28;20473;-63
2023/07/10 08:36:16;;;;;;;;;;;;;;;29.48;40.97;99829.88;5108928;28;19919;-63
2023/07/10 08:38:47;;;;;;;1.55;1.00;;;;;;;29.65;40.54;99829.41;5096913;28;19926;-63
2023/07/10 08:41:21;;;;;;;0.82;0.80;;;;;;;29.74;40.47;99826.06;5095493;28;20051;-62
2023/07/10 08:43:52;;;;;;;0.93;0.65;;;;;;;29.80;40.27;99830.91;5096498;28;20497;-63
2023/07/10 08:46:24;;;;;;;1.48;0.98;;;;;;;29.89;39.96;99814.38;5096547;28;20555;-63
2023/07/10 08:48:57;;;;;;;1.27;1.05;;;;;;;30.00;40.08;99827.53;5096461;28;20482;-63
2023/07/10 08:51:43;;;;;;;1.00;0.80;;;;;;;30.17;39.92;99816.50;5096085;28;20043;-63
2023/07/10 08:54:16;;;;;;;1.58;1.17;;;;;;;30.26;39.23;99822.84;5113822;28;20047;-64
2023/07/10 08:56:51;;;;;;;0.85;0.82;;;;;;;30.42;38.78;99818.91;5116762;28;20051;-63
2023/07/10 08:59:41;;;;;;;1.85;1.25;;;;;;;30.52;39.14;99823.44;5116940;27;20122;-63
2023/07/10 09:02:20;;;;;;;3.92;1.13;;;;;;;30.55;38.35;99817.94;5116699;27;20051;-63
2023/07/10 09:04:52;;;;;;;0.95;0.85;;;;;;;30.55;38.41;99820.56;5116525;28;20048;-63
2023/07/10 09:07:21;;;;;;;1.40;1.00;;;;;;;30.63;38.58;99815.50;5116745;28;20052;-62
2023/07/10 09:09:58;;;;;;;1.45;0.98;;;;;;;30.75;37.73;99811.84;5116478;28;20035;-63
2023/07/10 09:12:39;;;;;;;1.45;1.35;;;;;;;30.83;38.24;99827.91;5114413;28;20040;-64
2023/07/10 09:15:13;;;;;;;1.23;0.98;;;;;;;30.87;38.13;99824.03;5096195;28;20051;-63
2023/07/10 09:17:57;;;;;;;3.38;1.70;;;;;;;30.93;37.93;99823.56;5095904;28;20111;-63
2023/07/10 09:20:26;;;;;;;0.60;0.60;;;;;;;30.83;37.76;99819.97;5095831;28;20079;-62
2023/07/10 09:23:00;;;;;;;0.95;0.85;;;;;;;30.86;37.74;99822.34;5101976;28;20043;-63
2023/07/10 09:25:36;;;;;;;1.15;1.05;;;;;;;31.05;37.37;99817.28;5101825;28;20111;-63
2023/07/10 09:28:09;;;;;;;7.00;1.73;;;;;;;31.26;37.50;99812.00;5100187;28;20069;-63
2023/07/10 09:30:47;;;;;;;0.50;0.50;;;;;;;31.48;37.97;99810.09;5095941;28;20044;-63
2023/07/10 09:33:16;;;;;;;1.13;0.70;;;;;;;31.62;37.15;99807.13;5099509;28;20458;-62
2023/07/10 09:35:45;;;;;;;0.80;0.80;;;;;;;31.74;36.45;99808.72;5106451;28;20291;-63
2023/07/10 09:38:18;;;;;;;0.80;0.65;;;;;;;31.73;36.40;99803.56;5116085;28;20047;-63
2023/07/10 09:40:52;;;;;;;1.20;1.10;;;;;;;31.96;36.49;99796.28;5114665;28;20047;-63
2023/07/10 09:43:25;;;;;;;0.77;0.77;;;;;;;31.95;37.55;99797.25;5106180;28;20093;-63
2023/07/10 09:46:00;;;;;;;0.93;0.77;;;;;;;31.90;36.50;99799.44;5095525;28;20405;-63
2023/07/10 09:48:36;;;;;;;1.20;1.10;;;;;;;31.95;36.43;99799.88;5095327;28;20075;-63
2023/07/10 09:51:08;;;;;;;0.70;0.70;;;;;;;31.93;36.49;99793.91;5095522;28;20048;-63
2023/07/10 09:53:45;;;;;;;0.63;0.63;;;;;;;32.02;36.00;99795.78;5100878;28;20043;-63
2023/07/10 09:56:24;;;;;;;0.82;0.80;;;;;;;32.02;35.23;99798.41;5095415;28;20097;-63
2023/07/10 09:58:55;;;;;;;0.60;0.60;;;;;;;31.75;35.66;99791.88;5095161;28;20044;-63
2023/07/10 10:01:29;;;;;;;2.90;1.00;;;;;;;31.51;35.50;99787.88;5094712;28;20040;-63
2023/07/10 10:04:03;;;;;;;0.60;0.60;;;;;;;31.45;36.13;99788.41;5094879;28;20097;-63
2023/07/10 10:06:33;;;;;;;1.55;0.90;;;;;;;31.40;36.46;99782.66;5095529;28;20052;-63
2023/07/10 10:09:18;;;;;;;1.13;0.90;;;;;;;31.41;37.19;99779.06;5094794;28;20048;-63
2023/07/10 10:11:54;;;;;;;1.25;1.15;;;;;;;31.47;37.57;99776.75;5093987;28;20044;-63
2023/07/10 10:14:37;;;;;;;1.27;1.15;;;;;;;31.43;38.31;99783.28;5095846;28;20058;-63
2023/07/10 10:17:11;;;;;;;1.13;0.95;;;;;;;31.33;38.56;99790.25;5094798;28;20105;-63
2023/07/10 10:19:45;;;;;;;0.60;0.60;;;;;;;31.25;38.93;99789.22;5094680;28;20048;-63
2023/07/10 10:22:16;;;;;;;1.40;1.17;;;;;;;31.17;37.94;99774.03;5092624;28;20076;-63
2023/07/10 10:24:47;;;;;;;0.82;0.82;;;;;;;31.09;38.11;99777.34;5094642;28;20052;-63
2023/07/10 10:27:35;;;;;;;2.05;1.40;;;;;;;31.03;38.38;99777.00;5096188;28;20040;-64
2023/07/10 10:30:21;;;;;;;1.20;1.10;;;;;;;31.00;37.91;99772.00;5094588;28;20063;-63
2023/07/10 10:33:02;;;;;;;1.00;0.90;;;;;;;31.12;37.62;99774.41;5093854;28;20044;-63
2023/07/10 10:35:56;;;;;;;0.70;0.70;;;;;;;31.29;37.24;99773.00;5094030;28;20066;-62
2023/07/10 10:38:36;;;;;;;2.08;1.35;;;;;;;31.41;37.27;99766.69;5094616;28;20051;-62
2023/07/10 10:41:33;;;;;;;1.17;1.05;;;;;;;31.44;38.29;99771.72;5094336;28;20044;-61
2023/07/10 10:44:09;;;;;;;1.02;0.75;;;;;;;31.52;38.75;99769.28;5094466;28;20040;-63
2023/07/10 10:46:55;;;;;;;1.17;0.95;;;;;;;31.74;37.29;99774.41;5095093;28;20085;-62
2023/07/10 10:49:52;;;;;;;1.15;0.88;;;;;;;32.04;37.26;99759.47;5094492;28;20051;-63
2023/07/10 10:52:31;;;;;;;2.58;1.13;;;;;;;32.14;36.92;99760.34;5093187;28;20036;-64
2023/07/10 10:55:22;;;;;;;1.38;1.10;;;;;;;32.44;37.79;99758.44;5095604;28;20040;-62
2023/07/10 10:58:04;;;;;;;0.63;0.63;;;;;;;32.59;36.88;99756.25;5108308;28;20050;-61
2023/07/10 11:00:51;;;;;;;1.35;0.70;;;;;;;32.49;35.34;99754.56;5111673;28;20058;-64
2023/07/10 11:03:29;;;;;;;0.95;0.88;;;;;;;32.38;37.01;99750.25;5093855;28;20036;-64
2023/07/10 11:06:17;;;;;;;0.63;0.55;;;;;;;32.20;35.69;99754.53;5093949;28;20040;-63
2023/07/10 11:08:51;;;;;;;1.52;0.95;;;;;;;32.07;35.01;99746.00;5097998;28;20397;-62
2023/07/10 11:11:26;;;;;;;0.90;0.85;;;;;;;32.03;35.72;99748.09;5113973;28;20051;-64
2023/07/10 11:13:56;;;;;;;1.33;0.90;;;;;;;32.17;35.94;99749.53;5114051;28;20039;-64
2023/07/10 11:16:32;;;;;;;1.63;1.23;;;;;;;32.34;35.58;99740.94;5114654;28;20040;-63
2023/07/10 11:19:03;;;;;;;2.28;1.23;;;;;;;32.62;35.37;99740.13;5112576;28;20047;-63
2023/07/10 11:21:34;;;;;;;1.27;0.60;;;;;;;32.87;34.42;99742.22;5094899;28;20051;-62
2023/07/10 11:24:22;;;;;;;1.10;0.98;;;;;;;32.99;34.00;99733.13;5093636;28;20052;-62
2023/07/10 11:26:53;;;;;;;2.05;1.35;;;;;;;33.12;33.44;99737.31;5093561;28;20201;-64
2023/07/10 11:29:31;;;;;;;1.65;0.77;;;;;;;33.16;33.18;99736.06;5095954;28;20058;-64
2023/07/10 11:32:10;;;;;;;1.10;0.95;;;;;;;33.31;33.25;99734.59;5114259;28;20055;-62
2023/07/10 11:35:15;;;;;;;1.15;1.00;;;;;;;33.42;32.79;99730.00;5113771;28;20043;-64
2023/07/10 11:38:15;;;;;;;2.53;0.80;;;;;;;33.57;33.20;99722.44;5113985;28;20035;-64
2023/07/10 11:40:53;;;;;;;1.05;0.98;;;;;;;33.77;33.86;99717.88;5102764;28;20039;-62
2023/07/10 11:44:05;;;;;;;0.85;0.70;;;;;;;34.07;34.95;99720.25;5105379;28;20082;-63
2023/07/10 11:46:36;;;;;;;0.80;0.80;;;;;;;34.14;33.77;99721.31;5091811;28;20397;-64
2023/07/10 11:49:25;;;;;;;0.90;0.68;;;;;;;34.04;33.10;99721.38;5092384;28;20040;-64
2023/07/10 11:52:25;;;;;;;0.77;0.70;;;;;;;34.01;33.25;99713.69;5095326;28;20044;-62
2023/07/10 11:55:09;;;;;;;1.33;1.05;;;;;;;33.87;32.27;99713.34;5102593;28;20047;-63
2023/07/10 11:57:38;;;;;;;0.88;0.82;;;;;;;33.68;32.66;99703.69;5095831;28;20089;-63
2023/07/10 12:00:25;;;;;;;1.25;1.08;;;;;;;33.65;32.51;99698.69;5092636;28;20074;-62